Time,TemperatureF,DewpointF,PressureIn,WindDirection,WindDirectionDegrees,WindSpeedMPH,WindSpeedGustMPH,Humidity,HourlyPrecipIn,Conditions,Clouds,dailyrainin,SoftwareType,DateUTC
2013-03-22 00:10:00,36.5,31.2,30.35,WSW,247,0.0,0.0,81,0.00,,,0.04,open2300-1.11,2013-03-22 07:10:00,
2013-03-22 00:20:00,36.9,31.6,30.34,WSW,247,0.0,0.0,81,0.00,,,0.04,open2300-1.11,2013-03-22 07:20:00,
2013-03-22 00:30:00,36.9,31.3,30.34,WSW,247,0.0,0.0,80,0.00,,,0.04,open2300-1.11,2013-03-22 07:30:00,
2013-03-22 00:40:00,36.5,30.9,30.34,South,180,0.0,0.0,80,0.00,,,0.04,open2300-1.11,2013-03-22 07:40:00,
2013-03-22 00:50:00,36.0,30.4,30.35,South,180,0.0,0.0,80,0.00,,,0.04,open2300-1.11,2013-03-22 07:50:00,
2013-03-22 01:10:00,36.1,30.9,30.34,South,180,0.0,0.0,81,0.00,,,0.04,open2300-1.11,2013-03-22 08:10:00,
2013-03-22 01:20:00,36.3,31.0,30.34,South,180,0.0,0.0,81,0.00,,,0.04,open2300-1.11,2013-03-22 08:20:00,
2013-03-22 01:30:00,36.5,31.2,30.34,SSW,202,0.0,0.0,81,0.00,,,0.04,open2300-1.11,2013-03-22 08:30:00,
2013-03-22 01:40:00,36.1,30.9,30.34,South,180,0.0,2.0,81,0.00,,,0.04,open2300-1.11,2013-03-22 08:40:00,
2013-03-22 01:50:00,35.4,30.1,30.33,South,180,0.0,0.0,81,0.00,,,0.04,open2300-1.11,2013-03-22 08:50:00,
2013-03-22 02:10:00,34.3,29.0,30.33,South,180,0.0,0.0,81,0.00,,,0.04,open2300-1.11,2013-03-22 09:10:00,
2013-03-22 02:20:00,34.2,29.2,30.33,SE,135,0.0,0.0,82,0.00,,,0.04,open2300-1.11,2013-03-22 09:20:00,
2013-03-22 02:30:00,33.8,28.8,30.34,SE,135,0.0,0.0,82,0.00,,,0.04,open2300-1.11,2013-03-22 09:30:00,
2013-03-22 02:40:00,33.6,28.9,30.34,SE,135,0.0,0.0,83,0.00,,,0.04,open2300-1.11,2013-03-22 09:40:00,
2013-03-22 02:50:00,33.6,28.9,30.34,SE,135,0.0,0.0,83,0.00,,,0.04,open2300-1.11,2013-03-22 09:50:00,
2013-03-22 03:10:00,32.9,28.3,30.34,SE,135,0.0,0.0,83,0.00,,,0.04,open2300-1.11,2013-03-22 10:10:00,
2013-03-22 03:20:00,32.9,28.6,30.34,ESE,112,0.0,0.0,84,0.00,,,0.04,open2300-1.11,2013-03-22 10:20:00,
2013-03-22 03:30:00,32.7,28.4,30.33,ESE,112,0.0,0.0,84,0.00,,,0.04,open2300-1.11,2013-03-22 10:30:00,
2013-03-22 03:40:00,32.2,27.9,30.34,ESE,112,0.0,0.0,84,0.00,,,0.04,open2300-1.11,2013-03-22 10:40:00,
2013-03-22 03:50:00,31.6,27.4,30.34,South,180,0.0,0.0,84,0.00,,,0.04,open2300-1.11,2013-03-22 10:50:00,
2013-03-22 04:10:00,31.3,27.0,30.33,SSE,157,0.0,0.0,84,0.00,,,0.04,open2300-1.11,2013-03-22 11:10:00,
2013-03-22 04:20:00,31.3,27.0,30.33,SSE,157,0.0,0.0,84,0.00,,,0.04,open2300-1.11,2013-03-22 11:20:00,
2013-03-22 04:30:00,31.3,27.0,30.33,SSE,157,0.0,0.0,84,0.00,,,0.04,open2300-1.11,2013-03-22 11:30:00,
2013-03-22 04:40:00,31.3,27.3,30.33,SSE,157,0.0,0.0,85,0.00,,,0.04,open2300-1.11,2013-03-22 11:40:00,
2013-03-22 04:50:00,31.1,27.1,30.33,SSE,157,0.0,0.0,85,0.00,,,0.04,open2300-1.11,2013-03-22 11:50:00,
2013-03-22 05:10:00,31.3,27.3,30.33,ESE,112,0.0,0.0,85,0.00,,,0.04,open2300-1.11,2013-03-22 12:10:00,
2013-03-22 05:20:00,30.7,26.8,30.34,ESE,112,0.0,0.0,85,0.00,,,0.04,open2300-1.11,2013-03-22 12:20:00,
2013-03-22 05:30:00,30.6,26.6,30.34,ESE,112,0.0,0.0,85,0.00,,,0.04,open2300-1.11,2013-03-22 12:30:00,
2013-03-22 05:40:00,30.2,26.2,30.34,ESE,112,0.0,0.0,85,0.00,,,0.04,open2300-1.11,2013-03-22 12:40:00,
2013-03-22 05:50:00,30.0,26.1,30.34,South,180,0.0,0.0,85,0.00,,,0.04,open2300-1.11,2013-03-22 12:50:00,
2013-03-22 06:10:00,29.8,25.9,30.34,South,180,0.0,0.0,85,0.00,,,0.04,open2300-1.11,2013-03-22 13:10:00,
2013-03-22 06:20:00,29.8,25.9,30.34,South,180,0.0,0.0,85,0.00,,,0.04,open2300-1.11,2013-03-22 13:20:00,
2013-03-22 06:30:00,30.0,26.1,30.34,SSW,202,0.0,0.0,85,0.00,,,0.04,open2300-1.11,2013-03-22 13:30:00,
2013-03-22 06:40:00,30.0,26.4,30.35,SSW,202,0.0,0.0,86,0.00,,,0.04,open2300-1.11,2013-03-22 13:40:00,
2013-03-22 06:50:00,30.2,26.5,30.34,SSW,202,0.0,0.0,86,0.00,,,0.04,open2300-1.11,2013-03-22 13:50:00,
2013-03-22 07:00:00,30.6,26.9,30.34,SSE,157,0.0,1.8,86,0.00,,,0.02,open2300-1.11,2013-03-22 14:00:00,
2013-03-22 07:10:00,30.4,26.7,30.34,ESE,112,0.0,0.0,86,0.00,,,0.02,open2300-1.11,2013-03-22 14:10:00,
2013-03-22 07:20:00,30.2,26.5,30.35,ESE,112,0.0,0.0,86,0.00,,,0.02,open2300-1.11,2013-03-22 14:20:00,
2013-03-22 07:30:00,30.4,26.7,30.35,ESE,112,0.0,0.0,86,0.00,,,0.02,open2300-1.11,2013-03-22 14:30:00,
2013-03-22 07:40:00,30.7,27.1,30.35,ESE,112,0.0,0.0,86,0.00,,,0.02,open2300-1.11,2013-03-22 14:40:00,
2013-03-22 07:50:00,30.9,27.2,30.35,ESE,112,0.0,0.0,86,0.00,,,0.02,open2300-1.11,2013-03-22 14:50:00,
2013-03-22 08:00:00,31.6,28.3,30.35,ESE,112,0.0,0.0,87,0.00,,,0.02,open2300-1.11,2013-03-22 15:00:00,
2013-03-22 08:10:00,32.2,28.8,30.36,ESE,112,0.0,0.0,87,0.00,,,0.02,open2300-1.11,2013-03-22 15:10:00,
2013-03-22 08:20:00,33.1,29.6,30.35,SE,135,0.0,0.0,87,0.00,,,0.02,open2300-1.11,2013-03-22 15:20:00,
2013-03-22 08:30:00,33.6,30.1,30.36,South,180,0.0,0.0,87,0.00,,,0.02,open2300-1.11,2013-03-22 15:30:00,
2013-03-22 08:40:00,34.3,30.8,30.36,South,180,0.0,0.0,87,0.00,,,0.02,open2300-1.11,2013-03-22 15:40:00,
2013-03-22 08:50:00,35.2,32.0,30.36,South,180,0.0,1.3,88,0.00,,,0.02,open2300-1.11,2013-03-22 15:50:00,
2013-03-22 09:00:00,36.3,33.0,30.36,South,180,0.0,2.0,88,0.00,,,0.02,open2300-1.11,2013-03-22 16:00:00,
2013-03-22 09:10:00,37.2,33.9,30.36,South,180,0.0,0.0,88,0.00,,,0.02,open2300-1.11,2013-03-22 16:10:00,
2013-03-22 09:20:00,38.1,34.8,30.37,SW,225,0.0,2.5,88,0.00,,,0.02,open2300-1.11,2013-03-22 16:20:00,
2013-03-22 09:30:00,39.0,35.5,30.37,SSW,202,0.0,2.2,87,0.00,,,0.02,open2300-1.11,2013-03-22 16:30:00,
2013-03-22 09:40:00,39.4,35.2,30.37,SW,225,1.3,4.0,85,0.00,,,0.02,open2300-1.11,2013-03-22 16:40:00,
2013-03-22 09:50:00,40.3,35.5,30.38,SSW,202,0.0,0.0,83,0.00,,,0.02,open2300-1.11,2013-03-22 16:50:00,
2013-03-22 10:00:00,41.4,35.6,30.37,South,180,0.0,6.3,80,0.00,,,0.00,open2300-1.11,2013-03-22 17:00:00,
2013-03-22 10:10:00,42.6,37.2,30.37,SW,225,0.0,0.0,81,0.00,,,0.00,open2300-1.11,2013-03-22 17:10:00,
2013-03-22 10:20:00,44.4,38.0,30.37,South,180,0.0,0.0,78,0.00,,,0.00,open2300-1.11,2013-03-22 17:20:00,
2013-03-22 10:30:00,45.7,38.5,30.38,South,180,0.0,0.0,76,0.00,,,0.00,open2300-1.11,2013-03-22 17:30:00,
2013-03-22 10:40:00,46.0,37.5,30.37,South,180,0.0,0.0,72,0.00,,,0.00,open2300-1.11,2013-03-22 17:40:00,
2013-03-22 10:50:00,46.2,37.4,30.38,SE,135,0.0,0.0,71,0.00,,,0.00,open2300-1.11,2013-03-22 17:50:00,
2013-03-22 11:00:00,46.2,35.5,30.37,WSW,247,0.0,0.0,66,0.00,,,0.00,open2300-1.11,2013-03-22 18:00:00,
2013-03-22 11:10:00,46.6,35.4,30.37,South,180,0.0,0.0,65,0.00,,,0.00,open2300-1.11,2013-03-22 18:10:00,
2013-03-22 11:20:00,46.6,33.8,30.37,SW,225,0.0,0.0,61,0.00,,,0.00,open2300-1.11,2013-03-22 18:20:00,
2013-03-22 11:30:00,47.8,35.1,30.37,WNW,292,6.9,7.2,61,0.00,,,0.00,open2300-1.11,2013-03-22 18:30:00,
2013-03-22 11:40:00,47.1,33.5,30.38,NW,315,0.0,8.1,59,0.00,,,0.00,open2300-1.11,2013-03-22 18:40:00,
2013-03-22 11:50:00,46.6,32.5,30.38,WSW,247,5.4,13.6,58,0.00,,,0.00,open2300-1.11,2013-03-22 18:50:00,
2013-03-22 12:00:00,47.1,33.5,30.38,WNW,292,0.0,6.9,59,0.00,,,0.00,open2300-1.11,2013-03-22 19:00:00,
2013-03-22 12:10:00,48.7,34.1,30.37,North,0,3.6,8.1,57,0.00,,,0.00,open2300-1.11,2013-03-22 19:10:00,
2013-03-22 12:20:00,48.0,33.5,30.37,NNW,337,0.0,8.1,57,0.00,,,0.00,open2300-1.11,2013-03-22 19:20:00,
2013-03-22 12:30:00,48.2,33.2,30.37,NNW,337,0.0,7.8,56,0.00,,,0.00,open2300-1.11,2013-03-22 19:30:00,
2013-03-22 12:40:00,46.9,32.9,30.37,North,0,5.1,9.6,58,0.00,,,0.00,open2300-1.11,2013-03-22 19:40:00,
2013-03-22 12:50:00,45.1,32.1,30.38,NNW,337,0.0,7.4,60,0.00,,,0.00,open2300-1.11,2013-03-22 19:50:00,
2013-03-22 13:00:00,45.5,32.8,30.38,SW,225,0.0,0.0,61,0.00,,,0.00,open2300-1.11,2013-03-22 20:00:00,
2013-03-22 13:10:00,46.0,32.5,30.37,SW,225,0.0,0.0,59,0.00,,,0.00,open2300-1.11,2013-03-22 20:10:00,
2013-03-22 13:20:00,46.6,33.0,30.37,SW,225,0.0,3.8,59,0.00,,,0.00,open2300-1.11,2013-03-22 20:20:00,
2013-03-22 13:30:00,48.0,35.3,30.37,SW,225,8.1,9.2,61,0.00,,,0.00,open2300-1.11,2013-03-22 20:30:00,
2013-03-22 13:40:00,49.3,35.1,30.36,SW,225,3.8,8.1,58,0.00,,,0.00,open2300-1.11,2013-03-22 20:40:00,
2013-03-22 13:50:00,51.4,37.1,30.37,WSW,247,3.6,7.6,58,0.00,,,0.00,open2300-1.11,2013-03-22 20:50:00,
2013-03-22 14:00:00,50.7,35.1,30.37,SW,225,0.0,7.8,55,0.00,,,0.00,open2300-1.11,2013-03-22 21:00:00,
2013-03-22 14:10:00,50.7,35.5,30.36,SW,225,3.8,8.9,56,0.00,,,0.00,open2300-1.11,2013-03-22 21:10:00,
2013-03-22 14:20:00,49.3,33.8,30.36,WSW,247,0.0,7.4,55,0.00,,,0.00,open2300-1.11,2013-03-22 21:20:00,
2013-03-22 14:30:00,48.4,33.8,30.36,SW,225,0.0,6.5,57,0.00,,,0.00,open2300-1.11,2013-03-22 21:30:00,
2013-03-22 14:40:00,47.8,33.8,30.36,SW,225,1.3,5.1,58,0.00,,,0.00,open2300-1.11,2013-03-22 21:40:00,
2013-03-22 14:50:00,46.2,33.1,30.36,SW,225,7.2,7.2,60,0.00,,,0.00,open2300-1.11,2013-03-22 21:50:00,
2013-03-22 15:00:00,45.7,33.4,30.36,SW,225,2.5,8.1,62,0.00,,,0.00,open2300-1.11,2013-03-22 22:00:00,
2013-03-22 15:10:00,45.5,34.0,30.36,WSW,247,3.4,6.7,64,0.00,,,0.00,open2300-1.11,2013-03-22 22:10:00,
2013-03-22 15:20:00,45.5,33.6,30.36,South,180,1.8,8.1,63,0.00,,,0.00,open2300-1.11,2013-03-22 22:20:00,
2013-03-22 15:30:00,45.7,34.2,30.35,WSW,247,0.0,8.1,64,0.00,,,0.00,open2300-1.11,2013-03-22 22:30:00,
2013-03-22 15:40:00,46.2,34.3,30.36,SSW,202,6.7,9.4,63,0.00,,,0.00,open2300-1.11,2013-03-22 22:40:00,
2013-03-22 15:50:00,46.6,34.2,30.35,SSW,202,9.2,9.4,62,0.00,,,0.00,open2300-1.11,2013-03-22 22:50:00,
2013-03-22 16:00:00,46.2,33.9,30.36,SW,225,7.8,11.9,62,0.00,,,0.00,open2300-1.11,2013-03-22 23:00:00,
2013-03-22 16:10:00,46.6,34.6,30.36,South,180,4.9,9.8,63,0.00,,,0.00,open2300-1.11,2013-03-22 23:10:00,
2013-03-22 16:20:00,46.9,34.6,30.36,SW,225,0.0,10.1,62,0.00,,,0.00,open2300-1.11,2013-03-22 23:20:00,
2013-03-22 16:30:00,47.1,35.1,30.35,SW,225,6.5,7.8,63,0.00,,,0.00,open2300-1.11,2013-03-22 23:30:00,
2013-03-22 16:40:00,47.3,35.3,30.35,SE,135,0.0,7.4,63,0.00,,,0.00,open2300-1.11,2013-03-22 23:40:00,
2013-03-22 16:50:00,47.3,35.3,30.35,SSW,202,0.0,9.2,63,0.00,,,0.00,open2300-1.11,2013-03-22 23:50:00,
2013-03-22 17:00:00,47.3,34.9,30.35,SSW,202,3.1,7.8,62,0.00,,,0.00,open2300-1.11,2013-03-23 00:00:00,
2013-03-22 17:10:00,47.3,34.9,30.36,WSW,247,5.4,8.9,62,0.00,,,0.00,open2300-1.11,2013-03-23 00:10:00,
2013-03-22 17:20:00,46.6,34.2,30.36,WSW,247,2.2,7.4,62,0.00,,,0.00,open2300-1.11,2013-03-23 00:20:00,
2013-03-22 17:30:00,46.2,34.7,30.36,WSW,247,0.0,7.2,64,0.00,,,0.00,open2300-1.11,2013-03-23 00:30:00,
2013-03-22 17:40:00,47.1,35.5,30.36,West,270,0.0,7.4,64,0.00,,,0.00,open2300-1.11,2013-03-23 00:40:00,
2013-03-22 17:50:00,45.7,34.6,30.36,NNW,337,0.0,9.2,65,0.00,,,0.00,open2300-1.11,2013-03-23 00:50:00,
2013-03-22 18:00:00,44.4,34.1,30.36,NNW,337,0.0,6.3,67,0.00,,,0.00,open2300-1.11,2013-03-23 01:00:00,
2013-03-22 18:10:00,44.2,33.9,30.36,NW,315,5.8,6.9,67,0.00,,,0.00,open2300-1.11,2013-03-23 01:10:00,
2013-03-22 18:20:00,44.4,33.0,30.36,NW,315,0.0,7.8,64,0.00,,,0.00,open2300-1.11,2013-03-23 01:20:00,
2013-03-22 18:30:00,44.4,33.0,30.36,North,0,0.0,6.9,64,0.00,,,0.00,open2300-1.11,2013-03-23 01:30:00,
2013-03-22 18:40:00,44.2,32.4,30.36,NNE,22,0.0,2.5,63,0.00,,,0.00,open2300-1.11,2013-03-23 01:40:00,
2013-03-22 18:50:00,43.9,32.5,30.36,SW,225,0.0,8.7,64,0.00,,,0.00,open2300-1.11,2013-03-23 01:50:00,
2013-03-22 19:00:00,43.7,32.3,30.36,WNW,292,0.0,5.6,64,0.00,,,0.00,open2300-1.11,2013-03-23 02:00:00,
2013-03-22 19:10:00,43.5,32.1,30.36,WNW,292,0.0,0.0,64,0.00,,,0.00,open2300-1.11,2013-03-23 02:10:00,
2013-03-22 19:20:00,43.2,31.8,30.36,NW,315,0.0,0.0,64,0.00,,,0.00,open2300-1.11,2013-03-23 02:20:00,
2013-03-22 19:30:00,42.8,31.4,30.36,NNW,337,0.0,0.0,64,0.00,,,0.00,open2300-1.11,2013-03-23 02:30:00,
2013-03-22 19:40:00,42.4,31.5,30.36,North,0,0.0,0.0,65,0.00,,,0.00,open2300-1.11,2013-03-23 02:40:00,
2013-03-22 19:50:00,41.9,31.0,30.36,North,0,0.0,0.0,65,0.00,,,0.00,open2300-1.11,2013-03-23 02:50:00,
2013-03-22 20:00:00,41.5,30.6,30.36,North,0,0.0,0.0,65,0.00,,,0.00,open2300-1.11,2013-03-23 03:00:00,
2013-03-22 20:10:00,40.8,29.9,30.36,North,0,0.0,0.0,65,0.00,,,0.00,open2300-1.11,2013-03-23 03:10:00,
2013-03-22 20:20:00,39.9,29.8,30.36,North,0,0.0,0.0,67,0.00,,,0.00,open2300-1.11,2013-03-23 03:20:00,
2013-03-22 20:30:00,39.0,29.7,30.37,North,0,0.0,0.0,69,0.00,,,0.00,open2300-1.11,2013-03-23 03:30:00,
2013-03-22 20:40:00,38.3,29.0,30.38,North,0,0.0,0.0,69,0.00,,,0.00,open2300-1.11,2013-03-23 03:40:00,
2013-03-22 20:50:00,37.9,29.1,30.38,North,0,0.0,0.0,70,0.00,,,0.00,open2300-1.11,2013-03-23 03:50:00,
2013-03-22 21:00:00,37.6,29.1,30.38,ESE,112,0.0,0.0,71,0.00,,,0.00,open2300-1.11,2013-03-23 04:00:00,
2013-03-22 21:10:00,37.6,29.4,30.38,ESE,112,0.0,0.0,72,0.00,,,0.00,open2300-1.11,2013-03-23 04:10:00,
2013-03-22 21:20:00,37.2,29.4,30.39,ESE,112,0.0,0.0,73,0.00,,,0.00,open2300-1.11,2013-03-23 04:20:00,
2013-03-22 21:30:00,37.2,30.0,30.39,ESE,112,0.0,0.0,75,0.00,,,0.00,open2300-1.11,2013-03-23 04:30:00,
2013-03-22 21:40:00,37.2,30.7,30.39,ESE,112,0.0,0.0,77,0.00,,,0.00,open2300-1.11,2013-03-23 04:40:00,
2013-03-22 21:50:00,37.4,30.9,30.39,ESE,112,0.0,0.0,77,0.00,,,0.00,open2300-1.11,2013-03-23 04:50:00,
2013-03-22 22:00:00,37.6,31.0,30.40,WNW,292,0.0,0.0,77,0.00,,,0.00,open2300-1.11,2013-03-23 05:00:00,
2013-03-22 22:10:00,37.6,30.7,30.39,ENE,67,0.0,0.0,76,0.00,,,0.00,open2300-1.11,2013-03-23 05:10:00,
2013-03-22 22:20:00,37.2,30.7,30.40,East,90,0.0,0.0,77,0.00,,,0.00,open2300-1.11,2013-03-23 05:20:00,
2013-03-22 22:30:00,37.0,30.5,30.40,East,90,0.0,0.0,77,0.00,,,0.00,open2300-1.11,2013-03-23 05:30:00,
2013-03-22 22:40:00,36.5,30.0,30.40,East,90,0.0,0.0,77,0.00,,,0.00,open2300-1.11,2013-03-23 05:40:00,
2013-03-22 22:50:00,35.8,29.5,30.40,East,90,0.0,0.0,78,0.00,,,0.00,open2300-1.11,2013-03-23 05:50:00,
2013-03-22 23:00:00,35.4,29.2,30.40,East,90,0.0,0.0,78,0.00,,,0.00,open2300-1.11,2013-03-23 06:00:00,
2013-03-22 23:10:00,35.4,29.5,30.41,NE,45,0.0,1.1,79,0.00,,,0.00,open2300-1.11,2013-03-23 06:10:00,
2013-03-22 23:20:00,35.1,29.5,30.41,NE,45,0.0,0.0,80,0.00,,,0.00,open2300-1.11,2013-03-23 06:20:00,
2013-03-22 23:30:00,34.9,29.3,30.41,NNE,22,0.0,0.0,80,0.00,,,0.00,open2300-1.11,2013-03-23 06:30:00,
2013-03-22 23:40:00,35.2,30.0,30.40,NNW,337,0.0,0.0,81,0.00,,,0.00,open2300-1.11,2013-03-23 06:40:00,
2013-03-22 23:50:00,35.8,30.5,30.40,NNW,337,0.0,0.0,81,0.00,,,0.00,open2300-1.11,2013-03-23 06:50:00,